sensor_id;sensor_type;location;lat;lon;timestamp;temperature;humidity
16867;DHT22;8550;52.596;13.320;2023-04-03T00:01:35;1.40;99.90
16867;DHT22;8550;52.596;13.320;2023-04-03T00:06:40;1.30;99.90
16867;DHT22;8550;52.596;13.320;2023-04-03T00:11:41;1.40;99.90
16867;DHT22;8550;52.596;13.320;2023-04-03T00:16:43;1.40;99.90
16867;DHT22;8550;52.596;13.320;2023-04-03T00:21:47;1.30;99.90
16867;DHT22;8550;52.596;13.320;2023-04-03T00:26:49;1.20;99.90
16867;DHT22;8550;52.596;13.320;2023-04-03T00:31:50;1.30;99.90
16867;DHT22;8550;52.596;13.320;2023-04-03T00:36:54;1.30;99.90
16867;DHT22;8550;52.596;13.320;2023-04-03T00:41:56;1.20;99.90
16867;DHT22;8550;52.596;13.320;2023-04-03T00:46:58;1.10;99.90
16867;DHT22;8550;52.596;13.320;2023-04-03T00:52:02;1.10;99.90
16867;DHT22;8550;52.596;13.320;2023-04-03T00:57:06;1.10;99.90
16867;DHT22;8550;52.596;13.320;2023-04-03T01:02:08;1.00;99.90
16867;DHT22;8550;52.596;13.320;2023-04-03T01:07:14;1.00;99.90
16867;DHT22;8550;52.596;13.320;2023-04-03T01:12:19;1.10;99.90
16867;DHT22;8550;52.596;13.320;2023-04-03T01:17:27;1.00;99.90
16867;DHT22;8550;52.596;13.320;2023-04-03T01:22:33;1.00;99.90
16867;DHT22;8550;52.596;13.320;2023-04-03T01:27:38;0.90;99.90
16867;DHT22;8550;52.596;13.320;2023-04-03T01:32:41;0.80;99.90
16867;DHT22;8550;52.596;13.320;2023-04-03T01:37:43;0.70;99.90
16867;DHT22;8550;52.596;13.320;2023-04-03T01:42:45;0.60;99.90
16867;DHT22;8550;52.596;13.320;2023-04-03T01:47:48;0.50;99.90
16867;DHT22;8550;52.596;13.320;2023-04-03T01:52:50;0.40;99.90
16867;DHT22;8550;52.596;13.320;2023-04-03T01:57:52;0.40;99.90
16867;DHT22;8550;52.596;13.320;2023-04-03T02:02:55;0.30;99.90
16867;DHT22;8550;52.596;13.320;2023-04-03T02:07:57;0.20;99.90
16867;DHT22;8550;52.596;13.320;2023-04-03T02:12:59;0.10;99.90
16867;DHT22;8550;52.596;13.320;2023-04-03T02:18:02;0.00;99.90
16867;DHT22;8550;52.596;13.320;2023-04-03T02:23:04;0.10;99.90
16867;DHT22;8550;52.596;13.320;2023-04-03T02:28:07;-0.10;99.90
16867;DHT22;8550;52.596;13.320;2023-04-03T02:33:10;-0.10;99.90
16867;DHT22;8550;52.596;13.320;2023-04-03T02:38:12;-0.20;99.90
16867;DHT22;8550;52.596;13.320;2023-04-03T02:43:14;-0.20;99.90
16867;DHT22;8550;52.596;13.320;2023-04-03T02:48:17;-0.20;99.90
16867;DHT22;8550;52.596;13.320;2023-04-03T02:53:19;-0.10;99.90
16867;DHT22;8550;52.596;13.320;2023-04-03T02:58:21;-0.20;99.90
16867;DHT22;8550;52.596;13.320;2023-04-03T03:03:24;-0.20;99.90
16867;DHT22;8550;52.596;13.320;2023-04-03T03:08:26;-0.20;99.90
16867;DHT22;8550;52.596;13.320;2023-04-03T03:13:28;-0.20;99.90
16867;DHT22;8550;52.596;13.320;2023-04-03T03:18:32;-0.20;99.90
16867;DHT22;8550;52.596;13.320;2023-04-03T03:23:34;-0.30;99.90
16867;DHT22;8550;52.596;13.320;2023-04-03T03:28:36;-0.30;99.90
16867;DHT22;8550;52.596;13.320;2023-04-03T03:33:40;-0.30;99.90
16867;DHT22;8550;52.596;13.320;2023-04-03T03:38:42;-0.30;99.90
16867;DHT22;8550;52.596;13.320;2023-04-03T03:43:44;-0.40;99.90
16867;DHT22;8550;52.596;13.320;2023-04-03T03:48:47;-0.30;99.90
16867;DHT22;8550;52.596;13.320;2023-04-03T03:53:49;-0.30;99.90
16867;DHT22;8550;52.596;13.320;2023-04-03T03:58:51;-0.30;99.90
16867;DHT22;8550;52.596;13.320;2023-04-03T04:03:54;-0.40;99.90
16867;DHT22;8550;52.596;13.320;2023-04-03T04:08:56;-0.40;99.90
16867;DHT22;8550;52.596;13.320;2023-04-03T04:13:58;-0.40;99.90
16867;DHT22;8550;52.596;13.320;2023-04-03T04:19:01;-0.40;99.90
16867;DHT22;8550;52.596;13.320;2023-04-03T04:24:03;-0.50;99.90
16867;DHT22;8550;52.596;13.320;2023-04-03T04:29:05;-0.50;99.90
16867;DHT22;8550;52.596;13.320;2023-04-03T04:34:09;-0.50;99.90
16867;DHT22;8550;52.596;13.320;2023-04-03T04:39:11;-0.50;99.90
16867;DHT22;8550;52.596;13.320;2023-04-03T04:44:12;-0.40;99.90
16867;DHT22;8550;52.596;13.320;2023-04-03T04:49:17;-0.50;99.90
16867;DHT22;8550;52.596;13.320;2023-04-03T04:54:21;-0.50;99.90
16867;DHT22;8550;52.596;13.320;2023-04-03T04:59:23;-0.40;99.90
16867;DHT22;8550;52.596;13.320;2023-04-03T05:04:27;-0.40;99.90
16867;DHT22;8550;52.596;13.320;2023-04-03T05:09:29;-0.40;99.90
16867;DHT22;8550;52.596;13.320;2023-04-03T05:14:31;-0.30;99.90
16867;DHT22;8550;52.596;13.320;2023-04-03T05:19:34;-0.20;99.90
16867;DHT22;8550;52.596;13.320;2023-04-03T05:24:36;-0.20;99.90
16867;DHT22;8550;52.596;13.320;2023-04-03T05:29:38;-0.10;99.90
16867;DHT22;8550;52.596;13.320;2023-04-03T05:34:45;0.10;99.90
16867;DHT22;8550;52.596;13.320;2023-04-03T05:39:47;0.20;99.90
16867;DHT22;8550;52.596;13.320;2023-04-03T05:44:49;0.60;99.90
16867;DHT22;8550;52.596;13.320;2023-04-03T05:49:52;0.50;99.90
16867;DHT22;8550;52.596;13.320;2023-04-03T05:54:55;0.60;99.90
16867;DHT22;8550;52.596;13.320;2023-04-03T05:59:57;0.70;99.90
16867;DHT22;8550;52.596;13.320;2023-04-03T06:05:00;1.00;99.90
16867;DHT22;8550;52.596;13.320;2023-04-03T06:10:04;1.20;99.90
16867;DHT22;8550;52.596;13.320;2023-04-03T06:15:07;1.50;99.90
16867;DHT22;8550;52.596;13.320;2023-04-03T06:20:12;1.60;99.90
16867;DHT22;8550;52.596;13.320;2023-04-03T06:25:15;1.70;99.90
16867;DHT22;8550;52.596;13.320;2023-04-03T06:30:18;1.80;99.90
16867;DHT22;8550;52.596;13.320;2023-04-03T06:35:21;1.90;99.90
16867;DHT22;8550;52.596;13.320;2023-04-03T06:40:25;2.00;99.90
16867;DHT22;8550;52.596;13.320;2023-04-03T06:45:27;2.20;99.90
16867;DHT22;8550;52.596;13.320;2023-04-03T06:50:31;2.30;99.90
16867;DHT22;8550;52.596;13.320;2023-04-03T06:55:32;2.40;99.90
16867;DHT22;8550;52.596;13.320;2023-04-03T07:00:34;2.50;99.90
16867;DHT22;8550;52.596;13.320;2023-04-03T07:05:38;2.70;99.90
16867;DHT22;8550;52.596;13.320;2023-04-03T07:10:40;2.70;99.90
16867;DHT22;8550;52.596;13.320;2023-04-03T07:15:42;2.80;99.90
16867;DHT22;8550;52.596;13.320;2023-04-03T07:20:45;2.90;99.90
16867;DHT22;8550;52.596;13.320;2023-04-03T07:25:49;3.00;99.90
16867;DHT22;8550;52.596;13.320;2023-04-03T07:30:52;3.20;99.90
16867;DHT22;8550;52.596;13.320;2023-04-03T07:35:56;3.40;99.90
16867;DHT22;8550;52.596;13.320;2023-04-03T07:40:58;3.50;99.90
16867;DHT22;8550;52.596;13.320;2023-04-03T07:46:00;3.40;99.90
16867;DHT22;8550;52.596;13.320;2023-04-03T07:51:04;3.50;99.90
16867;DHT22;8550;52.596;13.320;2023-04-03T07:56:07;3.80;99.90
16867;DHT22;8550;52.596;13.320;2023-04-03T08:01:09;4.10;99.90
16867;DHT22;8550;52.596;13.320;2023-04-03T08:06:12;4.40;99.90
16867;DHT22;8550;52.596;13.320;2023-04-03T08:11:15;4.70;99.90
16867;DHT22;8550;52.596;13.320;2023-04-03T08:16:22;4.70;99.90
16867;DHT22;8550;52.596;13.320;2023-04-03T08:21:27;4.80;99.90
16867;DHT22;8550;52.596;13.320;2023-04-03T08:26:29;4.90;99.90
16867;DHT22;8550;52.596;13.320;2023-04-03T08:31:31;5.10;99.90
16867;DHT22;8550;52.596;13.320;2023-04-03T08:36:35;5.00;98.00
16867;DHT22;8550;52.596;13.320;2023-04-03T08:41:38;4.80;97.90
16867;DHT22;8550;52.596;13.320;2023-04-03T08:47:00;5.00;98.90
16867;DHT22;8550;52.596;13.320;2023-04-03T08:52:11;5.00;98.80
16867;DHT22;8550;52.596;13.320;2023-04-03T08:57:15;5.30;98.80
16867;DHT22;8550;52.596;13.320;2023-04-03T09:02:25;5.70;98.40
16867;DHT22;8550;52.596;13.320;2023-04-03T09:07:38;5.70;96.50
16867;DHT22;8550;52.596;13.320;2023-04-03T09:12:44;5.90;96.50
16867;DHT22;8550;52.596;13.320;2023-04-03T09:17:58;6.00;95.60
16867;DHT22;8550;52.596;13.320;2023-04-03T09:23:10;5.70;95.20
16867;DHT22;8550;52.596;13.320;2023-04-03T09:28:15;5.40;95.30
16867;DHT22;8550;52.596;13.320;2023-04-03T09:33:17;5.50;94.40
16867;DHT22;8550;52.596;13.320;2023-04-03T09:38:22;5.80;93.10
16867;DHT22;8550;52.596;13.320;2023-04-03T09:43:27;5.70;92.40
16867;DHT22;8550;52.596;13.320;2023-04-03T09:48:29;5.50;92.40
16867;DHT22;8550;52.596;13.320;2023-04-03T09:53:36;5.50;92.30
16867;DHT22;8550;52.596;13.320;2023-04-03T09:58:40;5.80;91.80
16867;DHT22;8550;52.596;13.320;2023-04-03T10:03:42;5.90;92.20
16867;DHT22;8550;52.596;13.320;2023-04-03T10:08:59;6.10;91.00
16867;DHT22;8550;52.596;13.320;2023-04-03T10:14:02;6.40;91.10
16867;DHT22;8550;52.596;13.320;2023-04-03T10:19:32;7.10;89.70
16867;DHT22;8550;52.596;13.320;2023-04-03T10:24:44;7.10;88.00
16867;DHT22;8550;52.596;13.320;2023-04-03T10:29:53;7.30;86.40
16867;DHT22;8550;52.596;13.320;2023-04-03T10:35:02;7.00;86.20
16867;DHT22;8550;52.596;13.320;2023-04-03T10:40:19;6.90;88.00
16867;DHT22;8550;52.596;13.320;2023-04-03T10:45:26;6.40;88.20
16867;DHT22;8550;52.596;13.320;2023-04-03T10:50:38;6.70;88.70
16867;DHT22;8550;52.596;13.320;2023-04-03T10:55:46;7.10;86.60
16867;DHT22;8550;52.596;13.320;2023-04-03T11:00:50;7.00;84.20
16867;DHT22;8550;52.596;13.320;2023-04-03T11:05:55;7.00;86.00
16867;DHT22;8550;52.596;13.320;2023-04-03T11:11:00;7.10;87.80
16867;DHT22;8550;52.596;13.320;2023-04-03T11:16:04;7.50;87.10
16867;DHT22;8550;52.596;13.320;2023-04-03T11:21:11;7.80;84.90
16867;DHT22;8550;52.596;13.320;2023-04-03T11:26:16;8.10;82.30
16867;DHT22;8550;52.596;13.320;2023-04-03T11:31:46;7.70;84.10
16867;DHT22;8550;52.596;13.320;2023-04-03T11:36:54;7.10;87.10
16867;DHT22;8550;52.596;13.320;2023-04-03T11:42:14;6.70;88.20
16867;DHT22;8550;52.596;13.320;2023-04-03T11:47:43;6.90;87.60
16867;DHT22;8550;52.596;13.320;2023-04-03T11:52:56;7.20;87.50
16867;DHT22;8550;52.596;13.320;2023-04-03T11:58:11;7.10;87.50
16867;DHT22;8550;52.596;13.320;2023-04-03T12:03:33;7.10;88.10
16867;DHT22;8550;52.596;13.320;2023-04-03T12:08:45;7.20;87.40
16867;DHT22;8550;52.596;13.320;2023-04-03T12:14:04;7.20;88.20
16867;DHT22;8550;52.596;13.320;2023-04-03T12:19:29;7.20;87.50
16867;DHT22;8550;52.596;13.320;2023-04-03T12:24:32;7.00;89.20
16867;DHT22;8550;52.596;13.320;2023-04-03T12:29:40;6.90;88.30
16867;DHT22;8550;52.596;13.320;2023-04-03T12:35:11;7.20;89.80
16867;DHT22;8550;52.596;13.320;2023-04-03T12:40:21;7.20;88.70
16867;DHT22;8550;52.596;13.320;2023-04-03T12:45:27;7.30;87.70
16867;DHT22;8550;52.596;13.320;2023-04-03T12:50:31;8.00;89.10
16867;DHT22;8550;52.596;13.320;2023-04-03T12:55:34;8.10;88.60
16867;DHT22;8550;52.596;13.320;2023-04-03T13:00:37;8.30;86.80
16867;DHT22;8550;52.596;13.320;2023-04-03T13:05:44;7.20;84.50
16867;DHT22;8550;52.596;13.320;2023-04-03T13:10:55;6.70;87.30
16867;DHT22;8550;52.596;13.320;2023-04-03T13:15:59;6.60;90.00
16867;DHT22;8550;52.596;13.320;2023-04-03T13:21:03;6.70;90.00
16867;DHT22;8550;52.596;13.320;2023-04-03T13:26:07;7.00;90.90
16867;DHT22;8550;52.596;13.320;2023-04-03T13:31:19;6.90;90.50
16867;DHT22;8550;52.596;13.320;2023-04-03T13:36:27;6.80;90.00
16867;DHT22;8550;52.596;13.320;2023-04-03T13:41:33;6.80;90.30
16867;DHT22;8550;52.596;13.320;2023-04-03T13:46:36;6.70;90.80
16867;DHT22;8550;52.596;13.320;2023-04-03T13:51:39;6.30;91.10
16867;DHT22;8550;52.596;13.320;2023-04-03T13:56:41;6.40;91.60
16867;DHT22;8550;52.596;13.320;2023-04-03T14:01:50;6.40;91.90
16867;DHT22;8550;52.596;13.320;2023-04-03T14:06:54;6.20;92.10
16867;DHT22;8550;52.596;13.320;2023-04-03T14:12:00;6.40;92.30
16867;DHT22;8550;52.596;13.320;2023-04-03T14:17:14;6.40;91.70
16867;DHT22;8550;52.596;13.320;2023-04-03T14:22:19;6.20;92.80
16867;DHT22;8550;52.596;13.320;2023-04-03T14:27:24;6.40;92.80
16867;DHT22;8550;52.596;13.320;2023-04-03T14:32:29;6.50;92.50
16867;DHT22;8550;52.596;13.320;2023-04-03T14:37:31;7.30;93.10
16867;DHT22;8550;52.596;13.320;2023-04-03T14:42:35;9.20;87.50
16867;DHT22;8550;52.596;13.320;2023-04-03T14:47:42;8.30;86.30
16867;DHT22;8550;52.596;13.320;2023-04-03T14:52:45;7.10;91.40
16867;DHT22;8550;52.596;13.320;2023-04-03T14:57:48;6.80;92.30
16867;DHT22;8550;52.596;13.320;2023-04-03T15:02:51;6.30;93.60
16867;DHT22;8550;52.596;13.320;2023-04-03T15:07:55;6.20;93.40
16867;DHT22;8550;52.596;13.320;2023-04-03T15:12:57;6.00;95.40
16867;DHT22;8550;52.596;13.320;2023-04-03T15:18:01;5.90;95.70
16867;DHT22;8550;52.596;13.320;2023-04-03T15:23:04;5.80;95.80
16867;DHT22;8550;52.596;13.320;2023-04-03T15:28:08;5.50;96.60
16867;DHT22;8550;52.596;13.320;2023-04-03T15:33:12;5.40;97.10
16867;DHT22;8550;52.596;13.320;2023-04-03T15:38:14;5.50;98.10
16867;DHT22;8550;52.596;13.320;2023-04-03T15:43:16;5.60;97.20
16867;DHT22;8550;52.596;13.320;2023-04-03T15:48:19;5.60;97.90
16867;DHT22;8550;52.596;13.320;2023-04-03T15:53:21;5.60;97.90
16867;DHT22;8550;52.596;13.320;2023-04-03T15:58:23;5.70;98.30
16867;DHT22;8550;52.596;13.320;2023-04-03T16:03:27;5.50;99.60
16867;DHT22;8550;52.596;13.320;2023-04-03T16:08:29;5.30;99.50
16867;DHT22;8550;52.596;13.320;2023-04-03T16:13:31;5.20;99.90
16867;DHT22;8550;52.596;13.320;2023-04-03T16:18:35;5.60;99.30
16867;DHT22;8550;52.596;13.320;2023-04-03T16:23:37;6.60;98.10
16867;DHT22;8550;52.596;13.320;2023-04-03T16:28:39;7.70;95.20
16867;DHT22;8550;52.596;13.320;2023-04-03T16:33:42;8.10;94.70
16867;DHT22;8550;52.596;13.320;2023-04-03T16:38:44;7.70;94.30
16867;DHT22;8550;52.596;13.320;2023-04-03T16:43:46;6.70;96.10
16867;DHT22;8550;52.596;13.320;2023-04-03T16:48:50;6.00;98.70
16867;DHT22;8550;52.596;13.320;2023-04-03T16:53:51;5.60;99.30
16867;DHT22;8550;52.596;13.320;2023-04-03T16:58:54;5.30;99.90
16867;DHT22;8550;52.596;13.320;2023-04-03T17:03:57;5.00;99.90
16867;DHT22;8550;52.596;13.320;2023-04-03T17:08:59;4.90;99.90
16867;DHT22;8550;52.596;13.320;2023-04-03T17:14:01;4.90;99.90
16867;DHT22;8550;52.596;13.320;2023-04-03T17:19:04;4.80;99.90
16867;DHT22;8550;52.596;13.320;2023-04-03T17:24:08;4.80;99.90
16867;DHT22;8550;52.596;13.320;2023-04-03T17:29:12;4.80;99.90
16867;DHT22;8550;52.596;13.320;2023-04-03T17:34:16;4.70;99.90
16867;DHT22;8550;52.596;13.320;2023-04-03T17:39:18;4.60;99.90
16867;DHT22;8550;52.596;13.320;2023-04-03T17:44:21;4.60;99.90
16867;DHT22;8550;52.596;13.320;2023-04-03T17:49:24;4.60;99.90
16867;DHT22;8550;52.596;13.320;2023-04-03T17:54:26;4.60;99.90
16867;DHT22;8550;52.596;13.320;2023-04-03T17:59:28;4.50;99.90
16867;DHT22;8550;52.596;13.320;2023-04-03T18:04:31;4.60;99.90
16867;DHT22;8550;52.596;13.320;2023-04-03T18:09:33;4.40;99.90
16867;DHT22;8550;52.596;13.320;2023-04-03T18:14:37;4.40;99.90
16867;DHT22;8550;52.596;13.320;2023-04-03T18:19:41;4.30;99.90
16867;DHT22;8550;52.596;13.320;2023-04-03T18:24:43;4.10;99.90
16867;DHT22;8550;52.596;13.320;2023-04-03T18:29:48;4.00;99.90
16867;DHT22;8550;52.596;13.320;2023-04-03T18:34:52;3.90;99.90
16867;DHT22;8550;52.596;13.320;2023-04-03T18:39:54;3.90;99.90
16867;DHT22;8550;52.596;13.320;2023-04-03T18:44:58;3.80;99.90
16867;DHT22;8550;52.596;13.320;2023-04-03T18:50:05;3.70;99.90
16867;DHT22;8550;52.596;13.320;2023-04-03T18:55:08;3.70;99.90
16867;DHT22;8550;52.596;13.320;2023-04-03T19:00:12;3.70;99.90
16867;DHT22;8550;52.596;13.320;2023-04-03T19:05:16;3.60;99.90
16867;DHT22;8550;52.596;13.320;2023-04-03T19:10:19;3.60;99.90
16867;DHT22;8550;52.596;13.320;2023-04-03T19:15:22;3.60;99.90
16867;DHT22;8550;52.596;13.320;2023-04-03T19:20:26;3.70;99.90
16867;DHT22;8550;52.596;13.320;2023-04-03T19:25:28;3.60;99.90
16867;DHT22;8550;52.596;13.320;2023-04-03T19:30:30;3.50;99.90
16867;DHT22;8550;52.596;13.320;2023-04-03T19:35:33;3.50;99.90
16867;DHT22;8550;52.596;13.320;2023-04-03T19:40:35;3.50;99.90
16867;DHT22;8550;52.596;13.320;2023-04-03T19:45:43;3.50;99.90
16867;DHT22;8550;52.596;13.320;2023-04-03T19:50:47;3.50;99.90
16867;DHT22;8550;52.596;13.320;2023-04-03T19:55:49;3.40;99.90
16867;DHT22;8550;52.596;13.320;2023-04-03T20:00:52;3.40;99.90
16867;DHT22;8550;52.596;13.320;2023-04-03T20:05:56;3.40;99.90
16867;DHT22;8550;52.596;13.320;2023-04-03T20:10:58;3.30;99.90
16867;DHT22;8550;52.596;13.320;2023-04-03T20:16:01;3.20;99.90
16867;DHT22;8550;52.596;13.320;2023-04-03T20:21:06;3.00;99.90
16867;DHT22;8550;52.596;13.320;2023-04-03T20:26:08;2.80;99.90
16867;DHT22;8550;52.596;13.320;2023-04-03T20:31:10;2.80;99.90
16867;DHT22;8550;52.596;13.320;2023-04-03T20:36:14;2.70;99.90
16867;DHT22;8550;52.596;13.320;2023-04-03T20:41:17;2.60;99.90
16867;DHT22;8550;52.596;13.320;2023-04-03T20:46:19;2.40;99.90
16867;DHT22;8550;52.596;13.320;2023-04-03T20:51:25;2.30;99.90
16867;DHT22;8550;52.596;13.320;2023-04-03T20:56:28;2.20;99.90
16867;DHT22;8550;52.596;13.320;2023-04-03T21:01:32;2.10;99.90
16867;DHT22;8550;52.596;13.320;2023-04-03T21:23:18;1.70;99.90
16867;DHT22;8550;52.596;13.320;2023-04-03T21:28:20;1.60;99.90
16867;DHT22;8550;52.596;13.320;2023-04-03T21:33:23;1.50;99.90
16867;DHT22;8550;52.596;13.320;2023-04-03T21:38:25;1.30;99.90
16867;DHT22;8550;52.596;13.320;2023-04-03T21:43:27;1.30;99.90
16867;DHT22;8550;52.596;13.320;2023-04-03T21:48:31;1.20;99.90
16867;DHT22;8550;52.596;13.320;2023-04-03T21:53:33;1.10;99.90
16867;DHT22;8550;52.596;13.320;2023-04-03T21:58:35;1.10;99.90
16867;DHT22;8550;52.596;13.320;2023-04-03T22:03:38;1.10;99.90
16867;DHT22;8550;52.596;13.320;2023-04-03T22:08:41;0.90;99.90
16867;DHT22;8550;52.596;13.320;2023-04-03T22:13:43;0.90;99.90
16867;DHT22;8550;52.596;13.320;2023-04-03T22:18:47;0.80;99.90
16867;DHT22;8550;52.596;13.320;2023-04-03T22:23:49;0.70;99.90
16867;DHT22;8550;52.596;13.320;2023-04-03T22:28:52;0.60;99.90
16867;DHT22;8550;52.596;13.320;2023-04-03T22:33:55;0.50;99.90
16867;DHT22;8550;52.596;13.320;2023-04-03T22:38:57;0.50;99.90
16867;DHT22;8550;52.596;13.320;2023-04-03T22:43:59;0.50;99.90
16867;DHT22;8550;52.596;13.320;2023-04-03T22:49:03;0.30;99.90
16867;DHT22;8550;52.596;13.320;2023-04-03T22:54:05;0.30;99.90
16867;DHT22;8550;52.596;13.320;2023-04-03T22:59:07;0.20;99.90
16867;DHT22;8550;52.596;13.320;2023-04-03T23:04:10;0.10;99.90
16867;DHT22;8550;52.596;13.320;2023-04-03T23:09:12;0.10;99.90
16867;DHT22;8550;52.596;13.320;2023-04-03T23:14:14;0.10;99.90
16867;DHT22;8550;52.596;13.320;2023-04-03T23:19:17;0.00;99.90
16867;DHT22;8550;52.596;13.320;2023-04-03T23:24:20;0.00;99.90
16867;DHT22;8550;52.596;13.320;2023-04-03T23:29:23;-0.10;99.90
16867;DHT22;8550;52.596;13.320;2023-04-03T23:34:26;-0.20;99.90
16867;DHT22;8550;52.596;13.320;2023-04-03T23:39:28;-0.20;99.90
16867;DHT22;8550;52.596;13.320;2023-04-03T23:44:30;-0.30;99.90
16867;DHT22;8550;52.596;13.320;2023-04-03T23:49:33;-0.30;99.90
16867;DHT22;8550;52.596;13.320;2023-04-03T23:54:35;-0.20;99.90
16867;DHT22;8550;52.596;13.320;2023-04-03T23:59:37;-0.20;99.90
